createdAt,value
2022-11-07T00:01:21.583Z,98949.72
2022-11-07T00:03:49.605Z,98948.13
2022-11-07T00:06:17.373Z,98952.75
2022-11-07T00:08:45.659Z,98954.97
2022-11-07T00:11:13.603Z,98949.59
2022-11-07T00:13:41.421Z,98958.41
2022-11-07T00:16:11.093Z,98960.16
2022-11-07T00:18:40.350Z,98963.75
2022-11-07T00:21:10.126Z,98963.78
2022-11-07T00:23:41.349Z,98965.31
2022-11-07T00:26:11.032Z,98969.56
2022-11-07T00:28:40.799Z,98980.44
2022-11-07T00:31:10.074Z,98973.94
2022-11-07T00:33:37.957Z,98982.28
2022-11-07T00:36:08.367Z,98979.19
2022-11-07T00:38:36.184Z,98974.78
2022-11-07T00:41:07.520Z,98988.25
2022-11-07T00:43:35.802Z,98990.16
2022-11-07T00:46:05.009Z,98996.81
2022-11-07T00:48:33.647Z,98996.50
2022-11-07T00:51:07.872Z,99003.66
2022-11-07T00:53:35.816Z,99010.31
2022-11-07T00:56:04.158Z,99009.19
2022-11-07T00:58:32.243Z,99013.22
2022-11-07T01:01:00.840Z,99016.97
2022-11-07T01:03:46.331Z,99028.50
2022-11-07T01:06:15.482Z,99020.03
2022-11-07T01:08:43.811Z,99019.59
2022-11-07T01:11:11.652Z,99016.13
2022-11-07T01:13:39.526Z,99024.47
2022-11-07T01:16:10.522Z,99023.91
2022-11-07T01:18:38.961Z,99026.03
2022-11-07T01:21:10.963Z,99020.78
2022-11-07T01:23:44.360Z,99020.97
2022-11-07T01:26:14.334Z,99019.91
2022-11-07T01:28:42.712Z,99015.78
2022-11-07T01:31:12.769Z,99007.69
2022-11-07T01:33:41.263Z,99007.78
2022-11-07T01:36:11.488Z,99004.28
2022-11-07T01:38:40.648Z,99007.75
2022-11-07T01:41:24.123Z,99009.53
2022-11-07T01:43:55.909Z,99002.44
2022-11-07T01:46:27.543Z,98999.13
2022-11-07T01:49:01.134Z,98994.16
2022-11-07T01:51:30.928Z,99001.38
2022-11-07T01:53:58.855Z,98991.22
2022-11-07T01:56:31.955Z,98993.50
2022-11-07T01:59:01.094Z,98999.38
2022-11-07T02:01:28.995Z,99001.81
2022-11-07T02:03:59.435Z,98994.50
2022-11-07T02:06:32.808Z,98996.53
2022-11-07T02:09:00.923Z,98999.78
2022-11-07T02:11:30.593Z,98993.59
2022-11-07T02:13:58.401Z,98994.53
2022-11-07T02:16:27.812Z,98995.94
2022-11-07T02:18:56.053Z,98992.97
2022-11-07T02:21:35.591Z,98990.19
2022-11-07T02:24:15.753Z,98994.81
2022-11-07T02:26:44.769Z,98994.63
2022-11-07T02:29:13.608Z,98997.25
2022-11-07T02:31:41.459Z,98991.69
2022-11-07T02:34:09.270Z,98992.72
2022-11-07T02:36:37.310Z,98992.13
2022-11-07T02:39:05.525Z,98991.66
2022-11-07T02:41:36.123Z,98989.56
2022-11-07T02:44:09.493Z,98988.53
2022-11-07T02:46:37.667Z,98993.31
2022-11-07T02:49:05.518Z,98985.59
2022-11-07T02:51:33.527Z,98987.59
2022-11-07T02:54:01.339Z,98991.53
2022-11-07T02:56:29.147Z,98977.78
2022-11-07T02:58:58.344Z,98979.16
2022-11-07T03:01:26.280Z,98970.56
2022-11-07T03:03:54.181Z,98973.25
2022-11-07T03:06:25.579Z,98979.31
2022-11-07T03:08:53.909Z,98973.91
2022-11-07T03:11:21.749Z,98972.19
2022-11-07T03:13:51.185Z,98972.50
2022-11-07T03:16:22.026Z,98987.69
2022-11-07T03:18:49.983Z,98986.22
2022-11-07T03:21:17.797Z,98967.00
2022-11-07T03:23:45.553Z,98994.09
2022-11-07T03:26:13.394Z,98986.72
2022-11-07T03:28:41.352Z,98991.00
2022-11-07T03:31:09.255Z,98997.63
2022-11-07T03:33:38.520Z,98999.13
2022-11-07T03:36:07.040Z,98994.94
2022-11-07T03:38:35.136Z,99000.31
2022-11-07T03:41:02.900Z,98997.97
2022-11-07T03:43:30.749Z,99003.22
2022-11-07T03:45:58.621Z,99010.47
2022-11-07T03:48:26.550Z,99005.44
2022-11-07T03:50:55.800Z,99010.69
2022-11-07T03:53:25.787Z,99008.66
2022-11-07T03:55:55.622Z,99007.28
2022-11-07T03:58:23.549Z,99008.56
2022-11-07T04:00:51.421Z,99019.06
2022-11-07T04:03:19.256Z,99021.06
2022-11-07T04:05:47.253Z,99021.75
2022-11-07T04:08:16.541Z,99026.41
2022-11-07T04:10:44.408Z,99022.88
2022-11-07T04:13:30.035Z,99028.44
2022-11-07T04:16:17.720Z,99036.59
2022-11-07T04:18:45.891Z,99053.06
2022-11-07T04:21:13.783Z,99054.28
2022-11-07T04:23:42.960Z,99050.66
2022-11-07T04:26:28.246Z,99065.94
2022-11-07T04:28:56.104Z,99066.28
2022-11-07T04:31:24.401Z,99055.84
2022-11-07T04:33:52.758Z,99046.06
2022-11-07T04:36:20.639Z,99050.06
2022-11-07T04:38:49.757Z,99034.09
2022-11-07T04:41:21.942Z,99034.66
2022-11-07T04:43:50.296Z,99036.25
2022-11-07T04:46:18.270Z,99036.75
2022-11-07T04:48:46.252Z,99048.13
2022-11-07T04:51:16.142Z,99054.78
2022-11-07T04:53:44.059Z,99060.78
2022-11-07T04:56:13.617Z,99053.00
2022-11-07T04:58:41.461Z,99055.97
2022-11-07T05:01:09.418Z,99051.00
2022-11-07T05:03:41.588Z,99054.44
2022-11-07T05:06:13.424Z,99061.94
2022-11-07T05:08:41.660Z,99065.28
2022-11-07T05:11:09.499Z,99070.06
2022-11-07T05:13:39.020Z,99063.56
2022-11-07T05:16:34.707Z,99067.03
2022-11-07T05:19:02.753Z,99053.47
2022-11-07T05:21:30.644Z,99062.56
2022-11-07T05:23:58.474Z,99061.47
2022-11-07T05:26:26.203Z,99066.78
2022-11-07T05:28:55.311Z,99055.47
2022-11-07T05:31:23.033Z,99056.25
2022-11-07T05:33:50.811Z,99070.13
2022-11-07T05:36:22.719Z,99054.84
2022-11-07T05:38:52.402Z,99044.81
2022-11-07T05:41:21.979Z,99048.31
2022-11-07T05:43:50.149Z,99050.81
2022-11-07T05:46:19.278Z,99062.22
2022-11-07T05:48:47.078Z,99051.09
2022-11-07T05:51:14.906Z,99060.66
2022-11-07T05:53:42.688Z,99053.09
2022-11-07T05:56:10.546Z,99057.63
2022-11-07T05:58:38.262Z,99057.75
2022-11-07T06:01:07.722Z,99075.25
2022-11-07T06:03:36.883Z,99066.88
2022-11-07T06:06:05.153Z,99076.09
2022-11-07T06:08:32.983Z,99072.69
2022-11-07T06:11:05.799Z,99077.31
2022-11-07T06:13:33.658Z,99075.94
2022-11-07T06:16:01.631Z,99075.94
2022-11-07T06:18:29.460Z,99080.38
2022-11-07T06:20:58.615Z,99087.84
2022-11-07T06:23:26.488Z,99091.34
2022-11-07T06:25:54.248Z,99091.34
2022-11-07T06:28:22.089Z,99101.16
2022-11-07T06:30:49.910Z,99100.00
2022-11-07T06:33:19.926Z,99104.97
2022-11-07T06:35:48.317Z,99110.53
2022-11-07T06:38:17.775Z,99108.03
2022-11-07T06:40:45.925Z,99109.22
2022-11-07T06:43:16.125Z,99111.16
2022-11-07T06:45:44.387Z,99115.88
2022-11-07T06:48:13.029Z,99109.59
2022-11-07T06:50:40.971Z,99116.44
2022-11-07T06:53:11.170Z,99119.63
2022-11-07T06:55:40.679Z,99120.19
2022-11-07T06:58:08.509Z,99123.91
2022-11-07T07:00:37.647Z,99126.19
2022-11-07T07:03:06.436Z,99134.81
2022-11-07T07:05:34.915Z,99133.88
2022-11-07T07:08:03.414Z,99137.75
2022-11-07T07:10:31.837Z,99138.69
2022-11-07T07:13:02.032Z,99145.78
2022-11-07T07:15:38.557Z,99147.19
2022-11-07T07:18:18.334Z,99151.44
2022-11-07T07:20:46.923Z,99153.22
2022-11-07T07:23:14.789Z,99148.25
2022-11-07T07:25:42.587Z,99151.69
2022-11-07T07:28:11.730Z,99157.41
2022-11-07T07:30:39.874Z,99158.09
2022-11-07T07:33:07.701Z,99164.53
2022-11-07T07:35:35.456Z,99160.41
2022-11-07T07:38:03.216Z,99160.25
2022-11-07T07:40:30.989Z,99171.28
2022-11-07T07:42:58.865Z,99177.41
2022-11-07T07:45:28.066Z,99166.06
2022-11-07T07:48:01.202Z,99165.81
2022-11-07T07:50:29.061Z,99161.63
2022-11-07T07:52:57.737Z,99168.25
2022-11-07T07:55:25.536Z,99170.72
2022-11-07T07:57:53.288Z,99167.66
2022-11-07T08:00:21.148Z,99160.56
2022-11-07T08:02:50.254Z,99167.53
2022-11-07T08:05:18.273Z,99170.56
2022-11-07T08:07:47.662Z,99171.22
2022-11-07T08:10:40.389Z,99166.00
2022-11-07T08:13:03.486Z,99185.69
2022-11-07T08:15:31.346Z,99175.47
2022-11-07T08:18:03.228Z,99171.53
2022-11-07T08:20:31.063Z,99169.91
2022-11-07T08:23:02.695Z,99165.47
2022-11-07T08:25:30.994Z,99170.50
2022-11-07T08:27:58.968Z,99175.16
2022-11-07T08:30:28.324Z,99173.69
2022-11-07T08:32:56.609Z,99175.00
2022-11-07T08:35:25.808Z,99181.66
2022-11-07T08:37:54.165Z,99176.94
2022-11-07T08:40:22.047Z,99182.19
2022-11-07T08:45:39.545Z,99184.94
2022-11-07T08:48:07.763Z,99181.69
2022-11-07T08:50:35.580Z,99179.47
2022-11-07T08:53:03.500Z,99179.59
2022-11-07T08:55:31.798Z,99172.63
2022-11-07T08:58:00.971Z,99179.91
2022-11-07T09:00:29.091Z,99174.53
2022-11-07T09:05:50.122Z,99188.56
2022-11-07T09:08:18.223Z,99184.06
2022-11-07T09:10:46.299Z,99178.13
2022-11-07T09:13:15.487Z,99186.31
2022-11-07T09:15:49.358Z,99182.94
2022-11-07T09:18:20.562Z,99180.13
2022-11-07T09:20:48.497Z,99175.44
2022-11-07T09:23:16.638Z,99173.97
2022-11-07T09:25:44.856Z,99183.81
2022-11-07T09:28:12.987Z,99183.38
2022-11-07T09:30:41.025Z,99181.50
2022-11-07T09:33:08.975Z,99184.25
2022-11-07T09:35:40.656Z,99181.84
2022-11-07T09:38:08.506Z,99184.16
2022-11-07T09:40:44.587Z,99188.97
2022-11-07T09:43:29.527Z,99196.47
2022-11-07T09:46:05.736Z,99194.16
2022-11-07T09:48:40.723Z,99192.78
2022-11-07T09:51:16.047Z,99188.94
2022-11-07T09:53:48.672Z,99190.97
2022-11-07T09:56:17.021Z,99199.31
2022-11-07T09:58:47.608Z,99198.44
2022-11-07T10:01:17.623Z,99203.47
2022-11-07T10:04:10.197Z,99195.81
2022-11-07T10:06:40.983Z,99199.13
2022-11-07T10:09:16.977Z,99202.22
2022-11-07T10:11:52.159Z,99194.38
2022-11-07T10:14:29.091Z,99195.41
2022-11-07T10:17:18.222Z,99205.38
2022-11-07T10:20:00.105Z,99191.69
2022-11-07T10:22:42.746Z,99199.16
2022-11-07T10:25:27.664Z,99185.34
2022-11-07T10:28:10.421Z,99186.47
2022-11-07T10:30:38.243Z,99195.75
2022-11-07T10:33:13.972Z,99184.53
2022-11-07T10:35:46.951Z,99190.19
2022-11-07T10:38:23.942Z,99185.22
2022-11-07T10:40:52.646Z,99184.06
2022-11-07T10:43:29.469Z,99177.91
2022-11-07T10:45:58.472Z,99180.56
2022-11-07T10:48:29.451Z,99173.63
2022-11-07T10:50:58.931Z,99166.91
2022-11-07T10:53:28.552Z,99168.50
2022-11-07T10:55:57.225Z,99176.84
2022-11-07T10:58:27.801Z,99183.09
2022-11-07T11:01:00.217Z,99172.63
2022-11-07T11:03:43.169Z,99174.72
2022-11-07T11:06:21.599Z,99171.41
2022-11-07T11:08:52.755Z,99173.28
2022-11-07T11:11:29.586Z,99168.31
2022-11-07T11:14:12.424Z,99170.94
2022-11-07T11:16:42.478Z,99158.56
2022-11-07T11:19:21.258Z,99163.00
2022-11-07T11:21:51.748Z,99153.19
2022-11-07T11:24:27.723Z,99152.97
2022-11-07T11:26:59.992Z,99156.09
2022-11-07T11:29:39.303Z,99151.44
2022-11-07T11:32:15.957Z,99155.06
2022-11-07T11:34:52.202Z,99161.03
2022-11-07T11:37:22.723Z,99159.69
2022-11-07T11:40:05.213Z,99165.53
2022-11-07T11:42:42.047Z,99167.13
2022-11-07T11:45:18.103Z,99171.88
2022-11-07T11:47:54.380Z,99177.38
2022-11-07T11:50:28.744Z,99170.59
2022-11-07T11:52:56.535Z,99162.47
2022-11-07T11:55:31.434Z,99162.72
2022-11-07T11:58:08.393Z,99163.31
2022-11-07T12:00:42.395Z,99171.06
2022-11-07T12:03:36.409Z,99159.88
2022-11-07T12:06:15.370Z,99161.44
2022-11-07T12:09:08.137Z,99165.28
2022-11-07T12:11:47.258Z,99161.03
2022-11-07T12:14:35.674Z,99165.94
2022-11-07T12:17:11.219Z,99163.91
2022-11-07T12:21:28.531Z,99156.94
2022-11-07T12:23:52.503Z,99151.81
2022-11-07T12:26:27.820Z,99152.00
2022-11-07T12:29:06.489Z,99167.03
2022-11-07T12:31:49.420Z,99161.31
2022-11-07T12:34:29.948Z,99170.19
2022-11-07T12:37:05.476Z,99170.59
2022-11-07T12:39:52.365Z,99177.66
2022-11-07T12:42:32.376Z,99156.66
2022-11-07T12:45:16.955Z,99161.38
2022-11-07T12:47:59.479Z,99159.53
2022-11-07T12:50:39.885Z,99162.22
2022-11-07T12:53:18.719Z,99154.69
2022-11-07T12:55:51.430Z,99155.16
2022-11-07T12:58:23.170Z,99152.19
2022-11-07T13:00:53.719Z,99151.94
2022-11-07T13:03:30.446Z,99147.94
2022-11-07T13:06:08.326Z,99156.81
2022-11-07T13:08:40.880Z,99147.69
2022-11-07T13:11:18.601Z,99144.53
2022-11-07T13:13:56.210Z,99140.00
2022-11-07T13:16:28.444Z,99136.56
2022-11-07T13:18:57.114Z,99142.97
2022-11-07T13:21:25.316Z,99129.81
2022-11-07T13:23:53.553Z,99133.47
2022-11-07T13:29:27.388Z,99129.56
2022-11-07T13:32:09.044Z,99120.75
2022-11-07T13:34:48.789Z,99125.47
2022-11-07T13:37:23.401Z,99131.09
2022-11-07T13:39:56.004Z,99129.34
2022-11-07T13:42:27.644Z,99124.28
2022-11-07T13:44:58.185Z,99125.19
2022-11-07T13:47:32.049Z,99127.22
2022-11-07T13:50:08.708Z,99131.47
2022-11-07T13:52:42.772Z,99133.38
2022-11-07T13:55:18.825Z,99132.94
2022-11-07T13:57:51.609Z,99122.72
2022-11-07T14:00:21.325Z,99134.13
2022-11-07T14:02:56.252Z,99125.19
2022-11-07T14:05:26.996Z,99121.53
2022-11-07T14:07:59.016Z,99116.56
2022-11-07T14:10:30.627Z,99127.28
2022-11-07T14:13:07.184Z,99125.13
2022-11-07T14:15:36.800Z,99132.78
2022-11-07T14:18:07.126Z,99128.53
2022-11-07T14:20:34.954Z,99123.03
2022-11-07T14:23:02.849Z,99129.91
2022-11-07T14:25:32.226Z,99134.59
2022-11-07T14:28:01.075Z,99132.34
2022-11-07T14:30:31.692Z,99136.22
2022-11-07T14:33:01.446Z,99130.16
2022-11-07T14:35:33.484Z,99141.31
2022-11-07T14:38:10.442Z,99129.50
2022-11-07T14:40:39.117Z,99128.31
2022-11-07T14:43:07.182Z,99132.94
2022-11-07T14:48:27.615Z,99128.28
2022-11-07T14:50:57.768Z,99138.75
2022-11-07T14:53:29.034Z,99142.88
2022-11-07T14:56:02.165Z,99131.53
2022-11-07T14:58:31.460Z,99138.84
2022-11-07T15:01:15.321Z,99127.75
2022-11-07T15:03:55.000Z,99124.00
2022-11-07T15:06:29.345Z,99131.31
2022-11-07T15:08:59.655Z,99128.16
2022-11-07T15:11:32.026Z,99139.38
2022-11-07T15:14:01.416Z,99134.69
2022-11-07T15:16:34.373Z,99140.72
2022-11-07T15:59:58.397Z,99135.44
2022-11-07T16:02:26.308Z,99131.56
2022-11-07T16:04:54.144Z,99130.28
2022-11-07T16:07:22.341Z,99133.59
2022-11-07T16:09:50.166Z,99137.78
2022-11-07T16:12:19.416Z,99129.56
2022-11-07T16:14:47.240Z,99140.56
2022-11-07T16:17:17.882Z,99147.09
2022-11-07T16:19:45.900Z,99141.41
2022-11-07T16:22:17.540Z,99134.22
2022-11-07T16:24:45.392Z,99138.97
2022-11-07T16:27:16.824Z,99137.34
2022-11-07T16:29:45.333Z,99141.97
2022-11-07T16:32:17.858Z,99132.88
2022-11-07T16:34:48.245Z,99138.94
2022-11-07T16:37:16.137Z,99135.81
2022-11-07T16:39:44.436Z,99139.72
2022-11-07T16:42:16.070Z,99140.88
2022-11-07T16:44:43.990Z,99134.94
2022-11-07T16:47:14.851Z,99138.41
2022-11-07T16:49:42.836Z,99135.59
2022-11-07T16:52:14.451Z,99135.13
2022-11-07T16:54:42.286Z,99129.75
2022-11-07T16:57:13.501Z,99131.19
2022-11-07T16:59:41.737Z,99125.69
2022-11-07T17:02:20.655Z,99132.28
2022-11-07T17:04:49.618Z,99127.88
2022-11-07T17:07:20.580Z,99124.16
2022-11-07T17:09:54.350Z,99130.16
2022-11-07T17:12:24.069Z,99136.03
2022-11-07T17:14:52.603Z,99133.56
2022-11-07T17:17:20.919Z,99137.81
2022-11-07T17:19:48.699Z,99136.81
2022-11-07T17:22:18.687Z,99131.72
2022-11-07T17:24:46.489Z,99137.63
2022-11-07T17:27:21.801Z,99134.22
2022-11-07T17:29:50.204Z,99139.06
2022-11-07T17:32:18.183Z,99140.78
2022-11-07T17:34:46.764Z,99148.19
2022-11-07T17:37:20.887Z,99143.97
2022-11-07T17:39:49.137Z,99138.84
2022-11-07T17:42:16.963Z,99141.28
2022-11-07T17:44:44.751Z,99139.69
2022-11-07T17:47:29.316Z,99136.22
2022-11-07T17:49:57.314Z,99135.03
2022-11-07T17:52:26.704Z,99134.84
2022-11-07T17:54:54.903Z,99146.94
2022-11-07T17:57:22.905Z,99143.16
2022-11-07T17:59:51.658Z,99147.63
2022-11-07T18:02:21.000Z,99138.97
2022-11-07T18:04:49.004Z,99136.44
2022-11-07T18:07:17.046Z,99137.16
2022-11-07T18:09:46.289Z,99137.28
2022-11-07T18:12:14.122Z,99138.84
2022-11-07T18:14:41.980Z,99135.09
2022-11-07T18:17:09.878Z,99133.91
2022-11-07T18:19:37.645Z,99134.94
2022-11-07T18:22:05.412Z,99137.66
2022-11-07T18:24:33.277Z,99134.94
2022-11-07T18:27:06.645Z,99137.16
2022-11-07T18:29:37.115Z,99145.09
2022-11-07T18:32:05.239Z,99149.56
2022-11-07T18:34:33.099Z,99133.81
2022-11-07T18:37:00.922Z,99145.88
2022-11-07T18:39:28.761Z,99139.13
2022-11-07T18:41:56.496Z,99131.63
2022-11-07T18:44:25.738Z,99144.13
2022-11-07T18:46:53.566Z,99140.66
2022-11-07T18:49:21.385Z,99139.59
2022-11-07T18:51:49.205Z,99139.94
2022-11-07T18:54:17.004Z,99151.56
2022-11-07T18:56:44.986Z,99141.50
2022-11-07T18:59:12.945Z,99141.06
2022-11-07T19:01:42.328Z,99140.63
2022-11-07T19:04:11.945Z,99138.19
2022-11-07T19:06:56.754Z,99135.56
2022-11-07T19:09:30.498Z,99136.19
2022-11-07T19:11:59.514Z,99139.06
2022-11-07T19:14:28.162Z,99133.94
2022-11-07T19:16:57.693Z,99137.38
2022-11-07T19:19:25.610Z,99141.53
2022-11-07T19:21:53.481Z,99142.09
2022-11-07T19:24:21.259Z,99151.69
2022-11-07T19:26:49.067Z,99137.81
2022-11-07T19:29:17.316Z,99144.75
2022-11-07T19:31:45.143Z,99139.84
2022-11-07T19:34:16.834Z,99140.91
2022-11-07T19:36:44.743Z,99142.09
2022-11-07T19:39:12.932Z,99138.63
2022-11-07T19:41:40.859Z,99147.34
2022-11-07T19:44:09.007Z,99147.84
2022-11-07T19:46:37.060Z,99139.53
2022-11-07T19:49:04.929Z,99142.75
2022-11-07T19:51:34.128Z,99138.03
2022-11-07T19:54:01.901Z,99146.06
2022-11-07T19:56:31.834Z,99146.63
2022-11-07T19:59:00.192Z,99145.84
2022-11-07T20:01:29.915Z,99147.78
2022-11-07T20:03:58.390Z,99143.75
2022-11-07T20:06:30.359Z,99147.06
2022-11-07T20:09:00.559Z,99143.31
2022-11-07T20:11:28.506Z,99147.25
2022-11-07T20:14:02.785Z,99143.75
2022-11-07T20:16:31.434Z,99145.28
2022-11-07T20:18:59.548Z,99155.72
2022-11-07T20:21:28.947Z,99151.50
2022-11-07T20:23:59.395Z,99146.63
2022-11-07T20:26:29.702Z,99142.69
2022-11-07T20:28:57.513Z,99154.84
2022-11-07T20:31:27.650Z,99150.84
2022-11-07T20:33:57.825Z,99157.13
2022-11-07T20:36:26.182Z,99159.22
2022-11-07T20:38:55.563Z,99152.47
2022-11-07T20:41:24.114Z,99147.81
2022-11-07T20:43:55.565Z,99158.06
2022-11-07T20:46:23.539Z,99154.91
2022-11-07T20:48:51.430Z,99153.31
2022-11-07T20:51:25.432Z,99147.91
2022-11-07T20:53:55.012Z,99147.53
2022-11-07T20:56:28.534Z,99137.22
2022-11-07T20:59:14.749Z,99134.75
2022-11-07T21:01:44.071Z,99143.25
2022-11-07T21:04:18.812Z,99143.19
2022-11-07T21:07:09.083Z,99153.31
2022-11-07T21:09:43.839Z,99153.75
2022-11-07T21:12:15.089Z,99164.91
2022-11-07T21:14:45.171Z,99162.53
2022-11-07T21:17:16.132Z,99158.72
2022-11-07T21:19:43.988Z,99156.22
2022-11-07T21:22:11.773Z,99157.78
2022-11-07T21:24:39.559Z,99155.69
2022-11-07T21:27:07.329Z,99153.63
2022-11-07T21:29:35.132Z,99164.75
2022-11-07T21:32:06.723Z,99159.88
2022-11-07T21:34:37.125Z,99169.16
2022-11-07T21:37:05.012Z,99161.72
2022-11-07T21:39:32.935Z,99162.28
2022-11-07T21:42:00.779Z,99167.84
2022-11-07T21:44:28.604Z,99173.91
2022-11-07T21:46:56.486Z,99160.13
2022-11-07T21:49:25.652Z,99162.50
2022-11-07T21:51:53.952Z,99163.88
2022-11-07T21:54:21.701Z,99152.97
2022-11-07T21:56:49.484Z,99159.66
2022-11-07T21:59:17.828Z,99149.50
2022-11-07T22:01:48.591Z,99155.72
2022-11-07T22:04:16.773Z,99156.16
2022-11-07T22:06:47.194Z,99149.28
2022-11-07T22:09:17.347Z,99156.22
2022-11-07T22:11:45.425Z,99151.28
2022-11-07T22:14:15.376Z,99156.56
2022-11-07T22:16:43.230Z,99154.09
2022-11-07T22:19:12.990Z,99148.09
2022-11-07T22:21:41.279Z,99159.94
2022-11-07T22:24:11.175Z,99150.31
2022-11-07T22:26:39.347Z,99149.13
2022-11-07T22:29:07.138Z,99148.06
2022-11-07T22:31:35.089Z,99155.03
2022-11-07T22:34:03.323Z,99144.34
2022-11-07T22:36:31.258Z,99139.13
2022-11-07T22:38:59.636Z,99141.13
2022-11-07T22:41:30.151Z,99148.59
2022-11-07T22:43:58.663Z,99144.16
2022-11-07T22:46:28.563Z,99149.03
2022-11-07T22:48:57.574Z,99136.00
2022-11-07T22:51:27.574Z,99138.66
2022-11-07T22:53:59.269Z,99134.81
2022-11-07T22:56:28.911Z,99131.97
2022-11-07T22:58:57.340Z,99127.78
2022-11-07T23:01:27.676Z,99121.97
2022-11-07T23:03:55.694Z,99132.97
2022-11-07T23:06:24.994Z,99130.03
2022-11-07T23:08:53.338Z,99132.22
2022-11-07T23:11:45.286Z,99125.66
2022-11-07T23:14:14.615Z,99125.09
2022-11-07T23:16:45.196Z,99117.59
2022-11-07T23:19:14.264Z,99120.00
2022-11-07T23:21:42.100Z,99118.53
2022-11-07T23:24:10.659Z,99121.22
2022-11-07T23:26:39.157Z,99118.53
2022-11-07T23:29:11.106Z,99116.94
2022-11-07T23:31:41.705Z,99115.22
2022-11-07T23:34:10.161Z,99116.69
2022-11-07T23:36:40.798Z,99114.13
2022-11-07T23:39:11.729Z,99110.09
2022-11-07T23:41:39.559Z,99107.84
2022-11-07T23:44:07.358Z,99097.59
2022-11-07T23:46:52.909Z,99094.00
2022-11-07T23:49:40.034Z,99088.91
2022-11-07T23:52:08.020Z,99090.66
2022-11-07T23:54:53.482Z,99092.91
2022-11-07T23:57:21.347Z,99096.22
